sensor_id;sensor_type;location;lat;lon;timestamp;P1;durP1;ratioP1;P2;durP2;ratioP2
11422;SDS011;5768;51.476;7.210;2023-06-10T00:01:33;7.80;;;7.13;;
11422;SDS011;5768;51.476;7.210;2023-06-10T00:06:36;7.18;;;6.57;;
11422;SDS011;5768;51.476;7.210;2023-06-10T00:11:40;7.85;;;7.13;;
11422;SDS011;5768;51.476;7.210;2023-06-10T00:16:44;7.68;;;7.07;;
11422;SDS011;5768;51.476;7.210;2023-06-10T00:21:46;8.20;;;7.40;;
11422;SDS011;5768;51.476;7.210;2023-06-10T00:26:49;7.60;;;7.00;;
11422;SDS011;5768;51.476;7.210;2023-06-10T00:31:58;8.23;;;7.53;;
11422;SDS011;5768;51.476;7.210;2023-06-10T00:37:01;7.80;;;6.95;;
11422;SDS011;5768;51.476;7.210;2023-06-10T00:42:04;8.65;;;6.80;;
11422;SDS011;5768;51.476;7.210;2023-06-10T00:47:09;7.60;;;6.85;;
11422;SDS011;5768;51.476;7.210;2023-06-10T00:52:12;7.80;;;6.80;;
11422;SDS011;5768;51.476;7.210;2023-06-10T00:57:16;7.72;;;7.03;;
11422;SDS011;5768;51.476;7.210;2023-06-10T01:02:20;7.93;;;7.13;;
11422;SDS011;5768;51.476;7.210;2023-06-10T01:07:23;8.23;;;6.80;;
11422;SDS011;5768;51.476;7.210;2023-06-10T01:12:33;7.70;;;7.03;;
11422;SDS011;5768;51.476;7.210;2023-06-10T01:17:55;7.82;;;7.10;;
11422;SDS011;5768;51.476;7.210;2023-06-10T01:23:01;9.07;;;7.57;;
11422;SDS011;5768;51.476;7.210;2023-06-10T01:28:06;7.65;;;6.90;;
11422;SDS011;5768;51.476;7.210;2023-06-10T01:33:14;8.25;;;7.45;;
11422;SDS011;5768;51.476;7.210;2023-06-10T01:38:25;8.55;;;7.65;;
11422;SDS011;5768;51.476;7.210;2023-06-10T01:43:28;8.32;;;7.63;;
11422;SDS011;5768;51.476;7.210;2023-06-10T01:48:33;8.60;;;7.90;;
11422;SDS011;5768;51.476;7.210;2023-06-10T01:53:37;8.52;;;7.63;;
11422;SDS011;5768;51.476;7.210;2023-06-10T01:58:39;10.27;;;8.43;;
11422;SDS011;5768;51.476;7.210;2023-06-10T02:03:41;8.68;;;7.85;;
11422;SDS011;5768;51.476;7.210;2023-06-10T02:08:45;8.93;;;8.10;;
11422;SDS011;5768;51.476;7.210;2023-06-10T02:13:47;9.23;;;8.43;;
11422;SDS011;5768;51.476;7.210;2023-06-10T02:18:50;10.02;;;9.02;;
11422;SDS011;5768;51.476;7.210;2023-06-10T02:23:54;9.70;;;8.70;;
11422;SDS011;5768;51.476;7.210;2023-06-10T02:28:56;10.10;;;9.10;;
11422;SDS011;5768;51.476;7.210;2023-06-10T02:34:00;10.30;;;9.23;;
11422;SDS011;5768;51.476;7.210;2023-06-10T02:39:04;11.20;;;10.13;;
11422;SDS011;5768;51.476;7.210;2023-06-10T02:44:06;10.25;;;9.35;;
11422;SDS011;5768;51.476;7.210;2023-06-10T02:49:08;11.10;;;10.20;;
11422;SDS011;5768;51.476;7.210;2023-06-10T02:54:12;10.90;;;9.85;;
11422;SDS011;5768;51.476;7.210;2023-06-10T02:59:14;10.88;;;10.00;;
11422;SDS011;5768;51.476;7.210;2023-06-10T03:04:16;10.63;;;9.73;;
11422;SDS011;5768;51.476;7.210;2023-06-10T03:09:20;11.85;;;10.73;;
11422;SDS011;5768;51.476;7.210;2023-06-10T03:14:23;12.00;;;10.80;;
11422;SDS011;5768;51.476;7.210;2023-06-10T03:19:26;11.98;;;9.98;;
11422;SDS011;5768;51.476;7.210;2023-06-10T03:24:30;12.85;;;10.85;;
11422;SDS011;5768;51.476;7.210;2023-06-10T03:29:32;12.63;;;11.32;;
11422;SDS011;5768;51.476;7.210;2023-06-10T03:34:35;11.95;;;10.95;;
11422;SDS011;5768;51.476;7.210;2023-06-10T03:39:38;12.40;;;11.40;;
11422;SDS011;5768;51.476;7.210;2023-06-10T03:44:40;12.45;;;11.35;;
11422;SDS011;5768;51.476;7.210;2023-06-10T03:49:43;13.07;;;11.88;;
11422;SDS011;5768;51.476;7.210;2023-06-10T03:54:46;12.95;;;11.65;;
11422;SDS011;5768;51.476;7.210;2023-06-10T03:59:49;12.80;;;11.65;;
11422;SDS011;5768;51.476;7.210;2023-06-10T04:04:51;13.32;;;11.95;;
11422;SDS011;5768;51.476;7.210;2023-06-10T04:09:54;12.20;;;11.13;;
11422;SDS011;5768;51.476;7.210;2023-06-10T04:14:57;12.73;;;11.52;;
11422;SDS011;5768;51.476;7.210;2023-06-10T04:19:59;11.77;;;10.57;;
11422;SDS011;5768;51.476;7.210;2023-06-10T04:25:05;12.15;;;11.00;;
11422;SDS011;5768;51.476;7.210;2023-06-10T04:30:09;10.70;;;9.80;;
11422;SDS011;5768;51.476;7.210;2023-06-10T04:35:13;10.90;;;9.80;;
11422;SDS011;5768;51.476;7.210;2023-06-10T04:40:18;10.50;;;9.60;;
11422;SDS011;5768;51.476;7.210;2023-06-10T04:45:21;10.48;;;9.57;;
11422;SDS011;5768;51.476;7.210;2023-06-10T04:50:24;10.30;;;9.40;;
11422;SDS011;5768;51.476;7.210;2023-06-10T04:55:27;10.32;;;9.30;;
11422;SDS011;5768;51.476;7.210;2023-06-10T05:00:30;10.05;;;9.05;;
11422;SDS011;5768;51.476;7.210;2023-06-10T05:05:32;9.32;;;8.43;;
11422;SDS011;5768;51.476;7.210;2023-06-10T05:10:36;9.60;;;8.60;;
11422;SDS011;5768;51.476;7.210;2023-06-10T05:15:38;9.60;;;8.23;;
11422;SDS011;5768;51.476;7.210;2023-06-10T05:20:44;11.40;;;9.43;;
11422;SDS011;5768;51.476;7.210;2023-06-10T05:25:48;8.57;;;7.65;;
11422;SDS011;5768;51.476;7.210;2023-06-10T05:30:51;7.97;;;7.22;;
11422;SDS011;5768;51.476;7.210;2023-06-10T05:35:53;10.75;;;9.40;;
11422;SDS011;5768;51.476;7.210;2023-06-10T05:40:57;8.57;;;7.72;;
11422;SDS011;5768;51.476;7.210;2023-06-10T05:46:00;9.32;;;7.10;;
11422;SDS011;5768;51.476;7.210;2023-06-10T05:51:02;18.80;;;17.02;;
11422;SDS011;5768;51.476;7.210;2023-06-10T05:56:06;7.55;;;6.95;;
11422;SDS011;5768;51.476;7.210;2023-06-10T06:01:08;9.25;;;7.13;;
11422;SDS011;5768;51.476;7.210;2023-06-10T06:06:10;7.60;;;6.88;;
11422;SDS011;5768;51.476;7.210;2023-06-10T06:11:14;7.70;;;6.90;;
11422;SDS011;5768;51.476;7.210;2023-06-10T06:16:16;7.43;;;6.72;;
11422;SDS011;5768;51.476;7.210;2023-06-10T06:21:19;8.43;;;6.65;;
11422;SDS011;5768;51.476;7.210;2023-06-10T06:26:23;9.95;;;7.15;;
11422;SDS011;5768;51.476;7.210;2023-06-10T06:31:25;8.30;;;6.65;;
11422;SDS011;5768;51.476;7.210;2023-06-10T06:36:28;7.03;;;6.35;;
11422;SDS011;5768;51.476;7.210;2023-06-10T06:41:31;7.68;;;5.85;;
11422;SDS011;5768;51.476;7.210;2023-06-10T06:46:34;6.10;;;5.60;;
11422;SDS011;5768;51.476;7.210;2023-06-10T06:51:36;7.38;;;6.03;;
11422;SDS011;5768;51.476;7.210;2023-06-10T06:56:40;5.88;;;5.35;;
11422;SDS011;5768;51.476;7.210;2023-06-10T07:01:42;6.10;;;5.50;;
11422;SDS011;5768;51.476;7.210;2023-06-10T07:06:44;7.80;;;5.95;;
11422;SDS011;5768;51.476;7.210;2023-06-10T07:11:48;8.63;;;6.65;;
11422;SDS011;5768;51.476;7.210;2023-06-10T07:16:50;6.63;;;5.82;;
11422;SDS011;5768;51.476;7.210;2023-06-10T07:21:52;6.15;;;5.55;;
11422;SDS011;5768;51.476;7.210;2023-06-10T07:26:56;5.60;;;5.10;;
11422;SDS011;5768;51.476;7.210;2023-06-10T07:31:58;6.22;;;5.47;;
11422;SDS011;5768;51.476;7.210;2023-06-10T07:37:00;6.90;;;5.18;;
11422;SDS011;5768;51.476;7.210;2023-06-10T07:42:04;7.05;;;5.22;;
11422;SDS011;5768;51.476;7.210;2023-06-10T07:47:08;6.82;;;5.60;;
11422;SDS011;5768;51.476;7.210;2023-06-10T07:52:10;6.07;;;5.25;;
11422;SDS011;5768;51.476;7.210;2023-06-10T07:57:14;5.50;;;5.00;;
11422;SDS011;5768;51.476;7.210;2023-06-10T08:02:17;5.80;;;4.60;;
11422;SDS011;5768;51.476;7.210;2023-06-10T08:07:19;5.28;;;4.78;;
11422;SDS011;5768;51.476;7.210;2023-06-10T08:12:23;6.20;;;4.88;;
11422;SDS011;5768;51.476;7.210;2023-06-10T08:17:26;5.30;;;4.53;;
11422;SDS011;5768;51.476;7.210;2023-06-10T08:22:28;5.55;;;4.90;;
11422;SDS011;5768;51.476;7.210;2023-06-10T08:27:32;5.22;;;4.68;;
11422;SDS011;5768;51.476;7.210;2023-06-10T08:32:34;5.65;;;4.65;;
11422;SDS011;5768;51.476;7.210;2023-06-10T08:37:36;5.35;;;4.57;;
11422;SDS011;5768;51.476;7.210;2023-06-10T08:42:42;7.60;;;4.43;;
11422;SDS011;5768;51.476;7.210;2023-06-10T08:47:50;6.35;;;4.53;;
11422;SDS011;5768;51.476;7.210;2023-06-10T08:52:57;5.65;;;4.32;;
11422;SDS011;5768;51.476;7.210;2023-06-10T08:58:02;8.90;;;5.40;;
11422;SDS011;5768;51.476;7.210;2023-06-10T09:03:05;5.15;;;3.97;;
11422;SDS011;5768;51.476;7.210;2023-06-10T09:08:08;5.70;;;4.63;;
11422;SDS011;5768;51.476;7.210;2023-06-10T09:13:13;5.25;;;4.30;;
11422;SDS011;5768;51.476;7.210;2023-06-10T09:18:18;5.07;;;4.40;;
11422;SDS011;5768;51.476;7.210;2023-06-10T09:23:21;5.18;;;4.50;;
11422;SDS011;5768;51.476;7.210;2023-06-10T09:28:25;5.55;;;4.35;;
11422;SDS011;5768;51.476;7.210;2023-06-10T09:33:27;6.20;;;4.40;;
11422;SDS011;5768;51.476;7.210;2023-06-10T09:38:30;5.30;;;4.80;;
11422;SDS011;5768;51.476;7.210;2023-06-10T09:43:42;7.00;;;4.80;;
11422;SDS011;5768;51.476;7.210;2023-06-10T09:48:47;7.28;;;4.75;;
11422;SDS011;5768;51.476;7.210;2023-06-10T09:53:51;5.35;;;4.85;;
11422;SDS011;5768;51.476;7.210;2023-06-10T09:58:56;6.68;;;4.65;;
11422;SDS011;5768;51.476;7.210;2023-06-10T10:03:58;5.45;;;4.53;;
11422;SDS011;5768;51.476;7.210;2023-06-10T10:09:01;5.50;;;4.95;;
11422;SDS011;5768;51.476;7.210;2023-06-10T10:14:05;7.88;;;5.00;;
11422;SDS011;5768;51.476;7.210;2023-06-10T10:19:10;5.45;;;4.57;;
11422;SDS011;5768;51.476;7.210;2023-06-10T10:24:21;5.38;;;4.88;;
11422;SDS011;5768;51.476;7.210;2023-06-10T10:29:37;5.63;;;4.70;;
11422;SDS011;5768;51.476;7.210;2023-06-10T10:34:42;5.20;;;4.70;;
11422;SDS011;5768;51.476;7.210;2023-06-10T10:39:54;5.43;;;4.93;;
11422;SDS011;5768;51.476;7.210;2023-06-10T10:44:59;6.20;;;4.60;;
11422;SDS011;5768;51.476;7.210;2023-06-10T10:50:03;5.97;;;5.15;;
11422;SDS011;5768;51.476;7.210;2023-06-10T10:55:16;6.10;;;4.53;;
11422;SDS011;5768;51.476;7.210;2023-06-10T11:00:25;5.28;;;4.88;;
11422;SDS011;5768;51.476;7.210;2023-06-10T11:05:31;5.90;;;5.00;;
11422;SDS011;5768;51.476;7.210;2023-06-10T11:10:40;6.65;;;4.95;;
11422;SDS011;5768;51.476;7.210;2023-06-10T11:15:56;6.43;;;5.05;;
11422;SDS011;5768;51.476;7.210;2023-06-10T11:21:00;8.18;;;5.47;;
11422;SDS011;5768;51.476;7.210;2023-06-10T11:26:09;5.78;;;4.95;;
11422;SDS011;5768;51.476;7.210;2023-06-10T11:31:19;5.78;;;5.20;;
11422;SDS011;5768;51.476;7.210;2023-06-10T11:36:23;6.00;;;5.50;;
11422;SDS011;5768;51.476;7.210;2023-06-10T11:41:27;6.72;;;5.40;;
11422;SDS011;5768;51.476;7.210;2023-06-10T11:46:35;5.53;;;5.05;;
11422;SDS011;5768;51.476;7.210;2023-06-10T11:51:38;6.00;;;5.47;;
11422;SDS011;5768;51.476;7.210;2023-06-10T11:56:49;5.70;;;5.20;;
11422;SDS011;5768;51.476;7.210;2023-06-10T12:02:02;6.05;;;5.45;;
11422;SDS011;5768;51.476;7.210;2023-06-10T12:07:04;6.40;;;5.28;;
11422;SDS011;5768;51.476;7.210;2023-06-10T12:12:07;6.68;;;5.35;;
11422;SDS011;5768;51.476;7.210;2023-06-10T12:17:13;5.93;;;5.38;;
11422;SDS011;5768;51.476;7.210;2023-06-10T12:22:19;7.82;;;5.88;;
11422;SDS011;5768;51.476;7.210;2023-06-10T12:27:23;5.18;;;4.68;;
11422;SDS011;5768;51.476;7.210;2023-06-10T12:32:35;5.53;;;5.00;;
11422;SDS011;5768;51.476;7.210;2023-06-10T12:37:42;4.90;;;4.38;;
11422;SDS011;5768;51.476;7.210;2023-06-10T12:42:57;4.50;;;4.10;;
11422;SDS011;5768;51.476;7.210;2023-06-10T12:48:08;6.05;;;4.97;;
11422;SDS011;5768;51.476;7.210;2023-06-10T12:53:12;6.50;;;4.68;;
11422;SDS011;5768;51.476;7.210;2023-06-10T12:58:14;5.35;;;4.85;;
11422;SDS011;5768;51.476;7.210;2023-06-10T13:03:19;6.20;;;4.40;;
11422;SDS011;5768;51.476;7.210;2023-06-10T13:08:21;8.02;;;4.80;;
11422;SDS011;5768;51.476;7.210;2023-06-10T13:13:24;7.13;;;4.82;;
11422;SDS011;5768;51.476;7.210;2023-06-10T13:18:27;4.75;;;4.35;;
11422;SDS011;5768;51.476;7.210;2023-06-10T13:23:29;4.57;;;4.18;;
11422;SDS011;5768;51.476;7.210;2023-06-10T13:28:32;6.72;;;4.20;;
11422;SDS011;5768;51.476;7.210;2023-06-10T13:33:36;5.13;;;4.72;;
11422;SDS011;5768;51.476;7.210;2023-06-10T13:38:38;5.93;;;4.32;;
11422;SDS011;5768;51.476;7.210;2023-06-10T13:43:41;5.47;;;3.90;;
11422;SDS011;5768;51.476;7.210;2023-06-10T13:48:44;5.15;;;3.90;;
11422;SDS011;5768;51.476;7.210;2023-06-10T13:53:48;4.43;;;3.78;;
11422;SDS011;5768;51.476;7.210;2023-06-10T13:58:52;4.10;;;3.80;;
11422;SDS011;5768;51.476;7.210;2023-06-10T14:03:56;3.60;;;3.30;;
11422;SDS011;5768;51.476;7.210;2023-06-10T14:08:59;4.55;;;4.18;;
11422;SDS011;5768;51.476;7.210;2023-06-10T14:14:01;3.53;;;3.22;;
11422;SDS011;5768;51.476;7.210;2023-06-10T14:19:05;4.32;;;3.10;;
11422;SDS011;5768;51.476;7.210;2023-06-10T14:24:08;3.78;;;3.40;;
11422;SDS011;5768;51.476;7.210;2023-06-10T14:29:10;3.95;;;3.20;;
11422;SDS011;5768;51.476;7.210;2023-06-10T14:34:15;3.40;;;3.10;;
11422;SDS011;5768;51.476;7.210;2023-06-10T14:39:18;3.25;;;2.95;;
11422;SDS011;5768;51.476;7.210;2023-06-10T14:44:20;3.85;;;3.05;;
11422;SDS011;5768;51.476;7.210;2023-06-10T14:49:27;3.53;;;2.72;;
11422;SDS011;5768;51.476;7.210;2023-06-10T14:54:29;4.15;;;2.97;;
11422;SDS011;5768;51.476;7.210;2023-06-10T14:59:32;3.33;;;3.00;;
11422;SDS011;5768;51.476;7.210;2023-06-10T15:04:36;3.25;;;2.70;;
11422;SDS011;5768;51.476;7.210;2023-06-10T15:09:39;3.13;;;2.80;;
11422;SDS011;5768;51.476;7.210;2023-06-10T15:14:41;4.68;;;3.00;;
11422;SDS011;5768;51.476;7.210;2023-06-10T15:19:45;2.92;;;2.47;;
11422;SDS011;5768;51.476;7.210;2023-06-10T15:24:48;2.88;;;2.67;;
11422;SDS011;5768;51.476;7.210;2023-06-10T15:29:50;3.58;;;3.05;;
11422;SDS011;5768;51.476;7.210;2023-06-10T15:34:54;2.90;;;2.70;;
11422;SDS011;5768;51.476;7.210;2023-06-10T15:39:57;4.00;;;3.20;;
11422;SDS011;5768;51.476;7.210;2023-06-10T15:44:59;3.25;;;2.90;;
11422;SDS011;5768;51.476;7.210;2023-06-10T15:50:04;2.92;;;2.60;;
11422;SDS011;5768;51.476;7.210;2023-06-10T15:55:08;3.38;;;2.85;;
11422;SDS011;5768;51.476;7.210;2023-06-10T16:00:11;3.00;;;2.80;;
11422;SDS011;5768;51.476;7.210;2023-06-10T16:05:16;4.43;;;2.72;;
11422;SDS011;5768;51.476;7.210;2023-06-10T16:10:18;3.10;;;2.60;;
11422;SDS011;5768;51.476;7.210;2023-06-10T16:15:22;2.85;;;2.58;;
11422;SDS011;5768;51.476;7.210;2023-06-10T16:20:26;3.20;;;2.90;;
11422;SDS011;5768;51.476;7.210;2023-06-10T16:25:29;2.72;;;2.53;;
11422;SDS011;5768;51.476;7.210;2023-06-10T16:30:33;2.85;;;2.55;;
11422;SDS011;5768;51.476;7.210;2023-06-10T16:35:37;3.22;;;2.50;;
11422;SDS011;5768;51.476;7.210;2023-06-10T16:40:40;3.15;;;2.60;;
11422;SDS011;5768;51.476;7.210;2023-06-10T16:45:42;6.35;;;3.00;;
11422;SDS011;5768;51.476;7.210;2023-06-10T16:50:49;3.97;;;3.00;;
11422;SDS011;5768;51.476;7.210;2023-06-10T16:55:51;2.85;;;2.65;;
11422;SDS011;5768;51.476;7.210;2023-06-10T17:00:54;4.90;;;2.85;;
11422;SDS011;5768;51.476;7.210;2023-06-10T17:06:04;3.42;;;2.58;;
11422;SDS011;5768;51.476;7.210;2023-06-10T17:11:06;3.40;;;3.13;;
11422;SDS011;5768;51.476;7.210;2023-06-10T17:16:09;4.07;;;2.70;;
11422;SDS011;5768;51.476;7.210;2023-06-10T17:21:13;4.45;;;4.13;;
11422;SDS011;5768;51.476;7.210;2023-06-10T17:26:16;4.07;;;3.78;;
11422;SDS011;5768;51.476;7.210;2023-06-10T17:31:18;3.67;;;3.38;;
11422;SDS011;5768;51.476;7.210;2023-06-10T17:36:24;5.05;;;4.35;;
11422;SDS011;5768;51.476;7.210;2023-06-10T17:41:27;4.22;;;3.25;;
11422;SDS011;5768;51.476;7.210;2023-06-10T17:46:29;3.33;;;3.00;;
11422;SDS011;5768;51.476;7.210;2023-06-10T17:51:33;5.32;;;3.10;;
11422;SDS011;5768;51.476;7.210;2023-06-10T17:56:36;3.88;;;3.45;;
11422;SDS011;5768;51.476;7.210;2023-06-10T18:01:39;4.45;;;3.35;;
11422;SDS011;5768;51.476;7.210;2023-06-10T18:06:43;3.85;;;3.55;;
11422;SDS011;5768;51.476;7.210;2023-06-10T18:11:45;3.80;;;3.38;;
11422;SDS011;5768;51.476;7.210;2023-06-10T18:16:48;3.88;;;3.58;;
11422;SDS011;5768;51.476;7.210;2023-06-10T18:21:53;4.03;;;3.67;;
11422;SDS011;5768;51.476;7.210;2023-06-10T18:26:56;4.25;;;3.88;;
11422;SDS011;5768;51.476;7.210;2023-06-10T18:31:58;4.65;;;3.90;;
11422;SDS011;5768;51.476;7.210;2023-06-10T18:37:03;5.30;;;3.72;;
11422;SDS011;5768;51.476;7.210;2023-06-10T18:42:07;4.95;;;4.45;;
11422;SDS011;5768;51.476;7.210;2023-06-10T18:47:10;5.22;;;4.22;;
11422;SDS011;5768;51.476;7.210;2023-06-10T18:52:14;5.28;;;4.78;;
11422;SDS011;5768;51.476;7.210;2023-06-10T18:57:16;7.07;;;4.90;;
11422;SDS011;5768;51.476;7.210;2023-06-10T19:02:19;5.75;;;4.35;;
11422;SDS011;5768;51.476;7.210;2023-06-10T19:07:23;7.47;;;4.88;;
11422;SDS011;5768;51.476;7.210;2023-06-10T19:12:26;5.32;;;4.82;;
11422;SDS011;5768;51.476;7.210;2023-06-10T19:17:28;5.45;;;4.95;;
11422;SDS011;5768;51.476;7.210;2023-06-10T19:22:32;7.68;;;5.38;;
11422;SDS011;5768;51.476;7.210;2023-06-10T19:27:35;5.30;;;4.78;;
11422;SDS011;5768;51.476;7.210;2023-06-10T19:32:38;5.38;;;4.90;;
11422;SDS011;5768;51.476;7.210;2023-06-10T19:37:42;8.30;;;5.53;;
11422;SDS011;5768;51.476;7.210;2023-06-10T19:42:45;5.88;;;5.30;;
11422;SDS011;5768;51.476;7.210;2023-06-10T19:47:48;6.25;;;5.18;;
11422;SDS011;5768;51.476;7.210;2023-06-10T19:52:55;6.60;;;5.40;;
11422;SDS011;5768;51.476;7.210;2023-06-10T19:57:58;6.72;;;5.57;;
11422;SDS011;5768;51.476;7.210;2023-06-10T20:03:01;6.43;;;5.93;;
11422;SDS011;5768;51.476;7.210;2023-06-10T20:08:05;7.63;;;5.97;;
11422;SDS011;5768;51.476;7.210;2023-06-10T20:13:08;7.43;;;5.53;;
11422;SDS011;5768;51.476;7.210;2023-06-10T20:18:10;7.80;;;6.22;;
11422;SDS011;5768;51.476;7.210;2023-06-10T20:23:14;6.72;;;5.47;;
11422;SDS011;5768;51.476;7.210;2023-06-10T20:28:17;6.57;;;5.90;;
11422;SDS011;5768;51.476;7.210;2023-06-10T20:33:20;6.50;;;6.00;;
11422;SDS011;5768;51.476;7.210;2023-06-10T20:38:24;7.05;;;6.30;;
11422;SDS011;5768;51.476;7.210;2023-06-10T20:43:26;6.75;;;6.13;;
11422;SDS011;5768;51.476;7.210;2023-06-10T20:48:29;7.32;;;5.82;;
11422;SDS011;5768;51.476;7.210;2023-06-10T20:53:36;6.32;;;5.78;;
11422;SDS011;5768;51.476;7.210;2023-06-10T20:58:42;6.60;;;5.40;;
11422;SDS011;5768;51.476;7.210;2023-06-10T21:03:49;7.45;;;5.38;;
11422;SDS011;5768;51.476;7.210;2023-06-10T21:08:56;6.80;;;6.13;;
11422;SDS011;5768;51.476;7.210;2023-06-10T21:13:59;7.22;;;6.53;;
11422;SDS011;5768;51.476;7.210;2023-06-10T21:19:02;7.97;;;6.45;;
11422;SDS011;5768;51.476;7.210;2023-06-10T21:24:06;6.78;;;6.13;;
11422;SDS011;5768;51.476;7.210;2023-06-10T21:29:09;6.22;;;5.20;;
11422;SDS011;5768;51.476;7.210;2023-06-10T21:34:11;6.35;;;5.35;;
11422;SDS011;5768;51.476;7.210;2023-06-10T21:39:15;7.03;;;5.28;;
11422;SDS011;5768;51.476;7.210;2023-06-10T21:44:18;6.53;;;5.93;;
11422;SDS011;5768;51.476;7.210;2023-06-10T21:49:20;7.07;;;6.07;;
11422;SDS011;5768;51.476;7.210;2023-06-10T21:54:25;6.82;;;5.80;;
11422;SDS011;5768;51.476;7.210;2023-06-10T21:59:27;6.45;;;5.85;;
11422;SDS011;5768;51.476;7.210;2023-06-10T22:04:31;7.43;;;6.20;;
11422;SDS011;5768;51.476;7.210;2023-06-10T22:09:35;6.82;;;6.10;;
11422;SDS011;5768;51.476;7.210;2023-06-10T22:14:38;6.45;;;5.85;;
11422;SDS011;5768;51.476;7.210;2023-06-10T22:19:42;6.95;;;6.18;;
11422;SDS011;5768;51.476;7.210;2023-06-10T22:24:47;6.28;;;5.68;;
11422;SDS011;5768;51.476;7.210;2023-06-10T22:29:55;7.57;;;6.43;;
11422;SDS011;5768;51.476;7.210;2023-06-10T22:34:57;5.97;;;5.57;;
11422;SDS011;5768;51.476;7.210;2023-06-10T22:40:01;5.95;;;5.35;;
11422;SDS011;5768;51.476;7.210;2023-06-10T22:45:08;7.15;;;6.45;;
11422;SDS011;5768;51.476;7.210;2023-06-10T22:50:11;7.40;;;6.78;;
11422;SDS011;5768;51.476;7.210;2023-06-10T22:55:14;8.52;;;6.32;;
11422;SDS011;5768;51.476;7.210;2023-06-10T23:00:17;8.55;;;7.70;;
11422;SDS011;5768;51.476;7.210;2023-06-10T23:05:20;7.57;;;6.85;;
11422;SDS011;5768;51.476;7.210;2023-06-10T23:10:24;7.18;;;6.50;;
11422;SDS011;5768;51.476;7.210;2023-06-10T23:15:28;7.88;;;7.18;;
11422;SDS011;5768;51.476;7.210;2023-06-10T23:20:31;7.97;;;7.18;;
11422;SDS011;5768;51.476;7.210;2023-06-10T23:25:37;10.13;;;7.53;;
11422;SDS011;5768;51.476;7.210;2023-06-10T23:30:40;7.97;;;7.18;;
11422;SDS011;5768;51.476;7.210;2023-06-10T23:35:43;7.88;;;7.07;;
11422;SDS011;5768;51.476;7.210;2023-06-10T23:40:47;7.95;;;6.72;;
11422;SDS011;5768;51.476;7.210;2023-06-10T23:45:50;8.63;;;7.00;;
11422;SDS011;5768;51.476;7.210;2023-06-10T23:50:52;8.35;;;7.60;;
11422;SDS011;5768;51.476;7.210;2023-06-10T23:55:56;8.32;;;7.50;;
